createdAt,value
2022-12-31T00:01:26.573Z,98523.84
2022-12-31T00:03:53.683Z,98523.48
2022-12-31T00:06:24.857Z,98524.36
2022-12-31T00:08:53.385Z,98523.70
2022-12-31T00:11:20.685Z,98521.66
2022-12-31T00:13:47.787Z,98522.17
2022-12-31T00:16:18.399Z,98519.98
2022-12-31T00:18:46.807Z,98517.92
2022-12-31T00:21:14.316Z,98520.25
2022-12-31T00:23:40.781Z,98519.90
2022-12-31T00:26:15.405Z,98527.42
2022-12-31T00:28:43.058Z,98526.58
2022-12-31T00:31:19.218Z,98525.58
2022-12-31T00:33:46.233Z,98525.93
2022-12-31T00:36:17.216Z,98525.92
2022-12-31T00:38:46.317Z,98531.05
2022-12-31T00:41:14.208Z,98536.85
2022-12-31T00:43:41.556Z,98540.61
2022-12-31T00:46:08.660Z,98547.42
2022-12-31T00:48:36.074Z,98542.32
2022-12-31T00:51:05.364Z,98540.60
2022-12-31T00:53:32.496Z,98548.09
2022-12-31T00:56:11.667Z,98542.81
2022-12-31T00:58:38.396Z,98537.00
2022-12-31T01:01:33.261Z,98535.71
2022-12-31T01:04:06.794Z,98542.17
2022-12-31T01:06:33.357Z,98529.52
2022-12-31T01:09:00.136Z,98526.34
2022-12-31T01:11:26.834Z,98523.56
2022-12-31T01:13:56.510Z,98531.73
2022-12-31T01:16:26.658Z,98525.86
2022-12-31T01:18:54.147Z,98529.58
2022-12-31T01:21:22.438Z,98530.96
2022-12-31T01:23:50.291Z,98527.48
2022-12-31T01:26:18.666Z,98522.02
2022-12-31T01:28:45.801Z,98526.13
2022-12-31T01:31:15.392Z,98526.54
2022-12-31T01:33:42.653Z,98528.48
2022-12-31T01:36:25.588Z,98525.83
2022-12-31T01:38:53.771Z,98522.65
2022-12-31T01:41:23.450Z,98525.59
2022-12-31T01:44:01.728Z,98518.73
2022-12-31T01:46:41.940Z,98521.10
2022-12-31T01:49:19.074Z,98518.40
2022-12-31T01:51:51.304Z,98513.77
2022-12-31T01:54:21.948Z,98508.67
2022-12-31T01:56:50.666Z,98503.71
2022-12-31T01:59:19.073Z,98501.16
2022-12-31T02:01:45.740Z,98498.84
2022-12-31T02:04:14.600Z,98501.54
2022-12-31T02:06:58.954Z,98505.00
2022-12-31T02:09:25.905Z,98517.79
2022-12-31T02:11:52.344Z,98520.02
2022-12-31T02:14:22.155Z,98515.91
2022-12-31T02:16:57.802Z,98514.23
2022-12-31T02:19:44.845Z,98508.96
2022-12-31T02:22:55.608Z,98509.99
2022-12-31T02:25:40.872Z,98512.90
2022-12-31T02:28:13.309Z,98517.38
2022-12-31T02:30:42.191Z,98519.45
2022-12-31T02:33:27.269Z,98517.77
2022-12-31T02:36:02.063Z,98523.35
2022-12-31T02:38:38.212Z,98525.98
2022-12-31T02:41:05.025Z,98528.92
2022-12-31T02:43:31.760Z,98525.25
2022-12-31T02:46:27.697Z,98519.39
2022-12-31T02:49:23.305Z,98519.32
2022-12-31T02:52:04.028Z,98513.83
2022-12-31T02:54:40.027Z,98507.48
2022-12-31T02:57:16.116Z,98503.99
2022-12-31T03:00:13.767Z,98501.15
2022-12-31T03:02:45.527Z,98500.73
2022-12-31T03:05:13.581Z,98502.95
2022-12-31T03:07:41.564Z,98505.52
2022-12-31T03:10:08.919Z,98515.50
2022-12-31T03:12:36.201Z,98507.38
2022-12-31T03:15:02.938Z,98506.21
2022-12-31T03:17:29.365Z,98505.38
2022-12-31T03:19:55.778Z,98505.19
2022-12-31T03:22:22.777Z,98502.20
2022-12-31T03:24:49.316Z,98508.59
2022-12-31T03:27:15.958Z,98504.54
2022-12-31T03:29:42.500Z,98499.89
2022-12-31T03:32:09.139Z,98497.76
2022-12-31T03:34:35.559Z,98500.15
2022-12-31T03:37:03.611Z,98496.16
2022-12-31T03:39:30.092Z,98492.40
2022-12-31T03:41:56.737Z,98484.34
2022-12-31T03:44:23.217Z,98478.71
2022-12-31T03:46:49.681Z,98486.80
2022-12-31T03:49:16.239Z,98486.84
2022-12-31T03:51:42.699Z,98492.90
2022-12-31T03:54:09.234Z,98498.45
2022-12-31T03:56:35.672Z,98500.76
2022-12-31T03:59:02.215Z,98501.77
2022-12-31T04:01:28.728Z,98493.67
2022-12-31T04:03:55.398Z,98487.92
2022-12-31T04:06:21.934Z,98480.98
2022-12-31T04:08:48.360Z,98478.77
2022-12-31T04:11:20.515Z,98481.16
2022-12-31T04:13:47.715Z,98476.65
2022-12-31T04:16:14.430Z,98467.92
2022-12-31T04:18:41.002Z,98470.45
2022-12-31T04:21:07.445Z,98474.71
2022-12-31T04:23:33.973Z,98471.98
2022-12-31T04:26:00.428Z,98462.55
2022-12-31T04:28:26.959Z,98463.60
2022-12-31T04:30:53.495Z,98466.05
2022-12-31T04:33:19.997Z,98472.11
2022-12-31T04:35:46.584Z,98471.84
2022-12-31T04:38:13.116Z,98482.48
2022-12-31T04:40:39.726Z,98490.44
2022-12-31T04:43:06.142Z,98500.11
2022-12-31T04:45:32.699Z,98513.23
2022-12-31T04:47:59.239Z,98523.74
2022-12-31T04:50:25.688Z,98531.27
2022-12-31T04:52:52.141Z,98531.13
2022-12-31T04:55:19.000Z,98527.39
2022-12-31T04:57:45.440Z,98531.80
2022-12-31T05:00:13.752Z,98523.46
2022-12-31T05:02:40.447Z,98517.19
2022-12-31T05:05:07.740Z,98517.08
2022-12-31T05:07:34.190Z,98515.94
2022-12-31T05:10:00.671Z,98517.05
2022-12-31T05:12:27.082Z,98515.92
2022-12-31T05:14:53.582Z,98529.15
2022-12-31T05:17:20.024Z,98526.09
2022-12-31T05:19:46.545Z,98527.31
2022-12-31T05:22:13.049Z,98526.52
2022-12-31T05:24:39.780Z,98518.33
2022-12-31T05:27:06.284Z,98519.42
2022-12-31T05:29:32.780Z,98521.05
2022-12-31T05:31:59.262Z,98526.10
2022-12-31T05:34:25.684Z,98520.94
2022-12-31T05:36:52.626Z,98515.62
2022-12-31T05:39:19.199Z,98515.56
2022-12-31T05:41:45.814Z,98520.52
2022-12-31T05:44:12.457Z,98532.19
2022-12-31T05:46:38.889Z,98541.70
2022-12-31T05:49:05.534Z,98548.76
2022-12-31T05:51:31.973Z,98561.42
2022-12-31T05:53:58.380Z,98573.02
2022-12-31T05:56:24.944Z,98580.14
2022-12-31T05:58:51.550Z,98585.20
2022-12-31T06:01:18.063Z,98586.21
2022-12-31T06:03:44.615Z,98574.35
2022-12-31T06:06:11.210Z,98573.05
2022-12-31T06:08:37.740Z,98574.80
2022-12-31T06:11:04.384Z,98576.70
2022-12-31T06:13:30.885Z,98572.45
2022-12-31T06:15:57.688Z,98564.02
2022-12-31T06:18:24.221Z,98560.45
2022-12-31T06:20:50.863Z,98557.56
2022-12-31T06:23:17.394Z,98558.70
2022-12-31T06:25:43.938Z,98561.60
2022-12-31T06:28:13.301Z,98560.76
2022-12-31T06:30:44.589Z,98564.36
2022-12-31T06:33:11.061Z,98570.09
2022-12-31T06:35:37.443Z,98574.33
2022-12-31T06:38:03.982Z,98578.80
2022-12-31T06:40:30.458Z,98578.38
2022-12-31T06:43:00.137Z,98581.84
2022-12-31T06:45:27.339Z,98582.77
2022-12-31T06:47:53.947Z,98581.66
2022-12-31T06:50:20.337Z,98588.92
2022-12-31T06:52:46.825Z,98589.61
2022-12-31T06:55:14.122Z,98600.39
2022-12-31T06:57:41.227Z,98605.75
2022-12-31T07:00:10.134Z,98615.36
2022-12-31T07:02:48.925Z,98611.66
2022-12-31T07:05:30.883Z,98618.22
2022-12-31T07:08:11.647Z,98615.52
2022-12-31T07:10:48.903Z,98608.74
2022-12-31T07:13:47.282Z,98604.23
2022-12-31T07:16:25.685Z,98600.88
2022-12-31T07:19:15.648Z,98600.39
2022-12-31T07:21:42.432Z,98598.05
2022-12-31T07:24:11.217Z,98603.79
2022-12-31T07:27:04.399Z,98609.65
2022-12-31T07:30:08.211Z,98611.66
2022-12-31T07:32:37.557Z,98608.94
2022-12-31T07:35:35.200Z,98604.01
2022-12-31T07:38:08.248Z,98614.91
2022-12-31T07:41:12.026Z,98607.05
2022-12-31T07:43:53.088Z,98617.48
2022-12-31T07:46:25.703Z,98615.22
2022-12-31T07:48:52.697Z,98614.19
2022-12-31T07:51:19.756Z,98618.27
2022-12-31T07:53:46.188Z,98616.27
2022-12-31T07:56:13.640Z,98610.98
2022-12-31T07:58:40.112Z,98616.77
2022-12-31T08:01:13.159Z,98625.67
2022-12-31T08:04:00.712Z,98624.33
2022-12-31T08:06:30.123Z,98626.02
2022-12-31T08:09:07.003Z,98625.22
2022-12-31T08:11:48.699Z,98616.58
2022-12-31T08:14:15.862Z,98616.49
2022-12-31T08:16:43.062Z,98619.40
2022-12-31T08:19:36.173Z,98617.98
2022-12-31T08:22:20.626Z,98614.20
2022-12-31T08:25:12.291Z,98619.15
2022-12-31T08:28:08.385Z,98615.33
2022-12-31T08:30:55.090Z,98611.86
2022-12-31T08:33:33.546Z,98618.39
2022-12-31T08:36:14.978Z,98616.13
2022-12-31T08:38:57.551Z,98614.88
2022-12-31T08:41:37.598Z,98621.84
2022-12-31T08:44:28.856Z,98631.27
2022-12-31T08:47:25.716Z,98633.17
2022-12-31T08:49:52.722Z,98634.34
2022-12-31T08:52:23.859Z,98624.84
2022-12-31T08:54:51.127Z,98626.98
2022-12-31T08:57:20.636Z,98631.73
2022-12-31T08:59:58.536Z,98626.08
2022-12-31T09:02:33.684Z,98625.39
2022-12-31T09:05:05.444Z,98619.87
2022-12-31T09:07:39.372Z,98614.07
2022-12-31T09:10:20.947Z,98615.44
2022-12-31T09:13:07.280Z,98611.92
2022-12-31T09:15:41.296Z,98599.06
2022-12-31T09:18:11.701Z,98594.04
2022-12-31T09:20:43.773Z,98585.02
2022-12-31T09:23:12.616Z,98576.27
2022-12-31T09:25:54.142Z,98575.94
2022-12-31T09:28:41.174Z,98573.06
2022-12-31T09:31:21.961Z,98571.75
2022-12-31T09:33:59.505Z,98574.38
2022-12-31T09:36:33.081Z,98580.52
2022-12-31T09:39:04.906Z,98588.85
2022-12-31T09:41:34.323Z,98588.86
2022-12-31T09:44:25.640Z,98599.35
2022-12-31T09:46:54.836Z,98605.17
2022-12-31T09:49:47.706Z,98615.86
2022-12-31T09:52:38.687Z,98629.39
2022-12-31T09:55:23.782Z,98625.93
2022-12-31T09:58:31.355Z,98616.14
2022-12-31T10:01:55.028Z,98615.58
2022-12-31T10:04:52.102Z,98609.27
2022-12-31T10:07:33.125Z,98608.42
2022-12-31T10:10:25.675Z,98599.53
2022-12-31T10:13:17.187Z,98584.45
2022-12-31T10:16:16.181Z,98580.61
2022-12-31T10:18:54.812Z,98584.67
2022-12-31T10:21:33.464Z,98582.13
2022-12-31T10:24:37.040Z,98582.07
2022-12-31T10:27:25.514Z,98592.67
2022-12-31T10:30:16.922Z,98594.88
2022-12-31T10:32:43.481Z,98586.99
2022-12-31T10:35:47.584Z,98588.04
2022-12-31T10:38:17.096Z,98587.95
2022-12-31T10:41:17.023Z,98590.77
2022-12-31T10:44:11.179Z,98589.79
2022-12-31T10:46:46.796Z,98583.89
2022-12-31T10:50:11.991Z,98579.70
2022-12-31T10:52:53.447Z,98576.44
2022-12-31T10:55:44.677Z,98565.65
2022-12-31T10:58:26.084Z,98557.00
2022-12-31T11:01:00.096Z,98559.55
2022-12-31T11:03:38.738Z,98551.45
2022-12-31T11:06:36.063Z,98550.91
2022-12-31T11:09:14.924Z,98554.61
2022-12-31T11:11:59.392Z,98553.44
2022-12-31T11:14:46.929Z,98546.84
2022-12-31T11:17:20.664Z,98545.77
2022-12-31T11:20:24.514Z,98551.61
2022-12-31T11:23:00.918Z,98549.99
2022-12-31T11:25:30.864Z,98555.02
2022-12-31T11:28:19.673Z,98550.40
2022-12-31T11:30:55.246Z,98542.67
2022-12-31T11:33:46.770Z,98536.92
2022-12-31T11:36:16.557Z,98529.56
2022-12-31T11:38:58.146Z,98534.17
2022-12-31T11:41:27.450Z,98538.63
2022-12-31T11:44:11.251Z,98547.61
2022-12-31T11:46:53.916Z,98548.83
2022-12-31T11:49:39.929Z,98552.42
2022-12-31T11:53:04.247Z,98553.64
2022-12-31T11:55:53.069Z,98555.32
2022-12-31T11:58:20.948Z,98555.56
2022-12-31T12:00:56.823Z,98557.94
2022-12-31T12:03:23.972Z,98560.06
2022-12-31T12:05:50.698Z,98565.35
2022-12-31T12:08:17.551Z,98571.21
2022-12-31T12:10:50.897Z,98577.35
2022-12-31T12:13:17.253Z,98583.11
2022-12-31T12:15:51.522Z,98584.41
2022-12-31T12:18:27.014Z,98594.83
2022-12-31T12:20:53.932Z,98602.73
2022-12-31T12:23:24.631Z,98605.10
2022-12-31T12:25:51.356Z,98603.83
2022-12-31T12:28:27.388Z,98601.55
2022-12-31T12:31:03.817Z,98602.62
2022-12-31T12:33:41.235Z,98603.54
2022-12-31T12:36:13.596Z,98610.92
2022-12-31T12:38:40.281Z,98607.08
2022-12-31T12:41:12.329Z,98602.39
2022-12-31T12:43:39.761Z,98585.20
2022-12-31T12:46:32.385Z,98573.77
2022-12-31T12:48:59.640Z,98552.06
2022-12-31T12:52:01.726Z,98551.23
2022-12-31T12:54:55.429Z,98542.64
2022-12-31T12:57:49.215Z,98540.27
2022-12-31T13:00:22.125Z,98538.48
2022-12-31T13:03:01.022Z,98535.81
2022-12-31T13:05:42.174Z,98526.05
2022-12-31T13:08:36.005Z,98539.21
2022-12-31T13:11:23.585Z,98535.16
2022-12-31T13:13:55.958Z,98537.73
2022-12-31T13:16:22.543Z,98538.77
2022-12-31T13:18:59.686Z,98538.71
2022-12-31T13:21:40.945Z,98541.64
2022-12-31T13:24:18.591Z,98558.41
2022-12-31T13:27:09.480Z,98563.29
2022-12-31T13:29:38.842Z,98575.73
2022-12-31T13:32:09.227Z,98582.96
2022-12-31T13:34:40.670Z,98586.89
2022-12-31T13:37:35.089Z,98589.56
2022-12-31T13:40:06.948Z,98585.45
2022-12-31T13:42:48.091Z,98577.80
2022-12-31T13:45:22.020Z,98576.74
2022-12-31T13:47:54.312Z,98579.30
2022-12-31T13:50:33.749Z,98594.11
2022-12-31T13:53:23.931Z,98595.83
2022-12-31T13:55:57.051Z,98598.84
2022-12-31T13:58:47.245Z,98594.19
2022-12-31T14:01:34.084Z,98597.82
2022-12-31T14:04:03.696Z,98596.66
2022-12-31T14:06:38.873Z,98589.66
2022-12-31T14:09:06.020Z,98588.69
2022-12-31T14:12:00.523Z,98588.70
2022-12-31T14:14:40.990Z,98595.14
2022-12-31T14:17:12.368Z,98593.65
2022-12-31T14:19:41.376Z,98593.96
2022-12-31T14:22:28.908Z,98595.04
2022-12-31T14:24:58.288Z,98587.74
2022-12-31T14:27:41.834Z,98596.14
2022-12-31T14:30:21.072Z,98594.36
2022-12-31T14:33:03.051Z,98589.14
2022-12-31T14:35:37.381Z,98584.70
2022-12-31T14:38:09.858Z,98581.40
2022-12-31T14:41:15.898Z,98584.02
2022-12-31T14:43:50.599Z,98591.20
2022-12-31T14:46:28.162Z,98588.11
2022-12-31T14:49:17.384Z,98594.23
2022-12-31T14:51:43.866Z,98587.66
2022-12-31T14:54:35.751Z,98582.70
2022-12-31T14:57:18.131Z,98580.49
2022-12-31T14:59:58.995Z,98580.80
2022-12-31T15:02:27.899Z,98582.63
2022-12-31T15:05:25.944Z,98593.45
2022-12-31T15:07:57.241Z,98596.36
2022-12-31T15:10:40.014Z,98603.19
2022-12-31T15:13:16.801Z,98606.26
2022-12-31T15:15:51.834Z,98606.38
2022-12-31T15:18:55.964Z,98612.05
2022-12-31T15:21:46.038Z,98613.84
2022-12-31T15:24:18.821Z,98618.39
2022-12-31T15:26:57.500Z,98621.89
2022-12-31T15:29:23.853Z,98618.90
2022-12-31T15:31:51.157Z,98614.30
2022-12-31T15:34:27.561Z,98605.29
2022-12-31T15:36:57.766Z,98607.86
2022-12-31T15:39:36.360Z,98612.39
2022-12-31T15:42:36.758Z,98617.33
2022-12-31T15:44:54.992Z,98624.29
2022-12-31T15:47:37.043Z,98633.01
2022-12-31T15:50:08.126Z,98631.94
2022-12-31T15:52:41.666Z,98640.46
2022-12-31T15:55:16.428Z,98647.41
2022-12-31T15:57:43.770Z,98651.87
2022-12-31T16:00:55.063Z,98653.73
2022-12-31T16:03:24.402Z,98657.63
2022-12-31T16:05:54.218Z,98654.15
2022-12-31T16:08:24.759Z,98646.79
2022-12-31T16:10:53.814Z,98645.73
2022-12-31T16:13:23.022Z,98645.30
2022-12-31T16:16:00.323Z,98649.52
2022-12-31T16:18:37.093Z,98647.71
2022-12-31T16:21:03.633Z,98646.50
2022-12-31T16:23:30.169Z,98645.39
2022-12-31T16:26:01.026Z,98649.36
2022-12-31T16:28:33.203Z,98657.95
2022-12-31T16:31:06.164Z,98653.21
2022-12-31T16:33:33.126Z,98657.19
2022-12-31T16:36:01.509Z,98658.52
2022-12-31T16:38:35.966Z,98657.05
2022-12-31T16:41:02.465Z,98651.80
2022-12-31T16:43:40.597Z,98659.39
2022-12-31T16:46:19.029Z,98660.69
2022-12-31T16:48:54.061Z,98668.89
2022-12-31T16:51:24.457Z,98667.92
2022-12-31T16:53:51.971Z,98665.94
2022-12-31T16:56:39.371Z,98671.40
2022-12-31T16:59:31.923Z,98679.92
2022-12-31T17:02:05.026Z,98687.09
2022-12-31T17:04:31.574Z,98691.73
2022-12-31T17:07:40.839Z,98699.02
2022-12-31T17:10:07.215Z,98705.81
2022-12-31T17:13:08.738Z,98705.50
2022-12-31T17:15:38.133Z,98707.85
2022-12-31T17:18:06.057Z,98702.11
2022-12-31T17:20:34.651Z,98698.25
2022-12-31T17:23:05.582Z,98693.77
2022-12-31T17:25:37.358Z,98698.43
2022-12-31T17:28:06.943Z,98694.66
2022-12-31T17:30:33.393Z,98699.32
2022-12-31T17:33:22.976Z,98700.91
2022-12-31T17:36:12.366Z,98700.55
2022-12-31T17:38:39.001Z,98708.27
2022-12-31T17:41:05.473Z,98705.41
2022-12-31T17:43:39.044Z,98703.17
2022-12-31T17:46:19.625Z,98694.75
2022-12-31T17:48:52.086Z,98690.47
2022-12-31T17:51:18.490Z,98692.27
2022-12-31T17:53:50.996Z,98693.95
2022-12-31T17:56:19.115Z,98698.13
2022-12-31T17:58:49.073Z,98700.95
2022-12-31T18:01:18.584Z,98700.60
2022-12-31T18:03:45.578Z,98701.64
2022-12-31T18:06:16.509Z,98704.20
2022-12-31T18:08:43.537Z,98702.03
2022-12-31T18:11:28.754Z,98698.52
2022-12-31T18:13:55.570Z,98704.50
2022-12-31T18:16:22.154Z,98706.79
2022-12-31T18:18:49.460Z,98706.05
2022-12-31T18:21:35.348Z,98703.92
2022-12-31T18:26:30.674Z,98693.37
2022-12-31T18:28:59.494Z,98698.58
2022-12-31T18:31:29.583Z,98706.29
2022-12-31T18:33:58.689Z,98709.26
2022-12-31T18:36:26.753Z,98711.08
2022-12-31T18:38:53.239Z,98712.35
2022-12-31T18:41:32.294Z,98716.14
2022-12-31T18:43:58.777Z,98719.39
2022-12-31T18:46:25.446Z,98717.85
2022-12-31T18:48:52.164Z,98714.23
2022-12-31T18:51:25.144Z,98716.50
2022-12-31T18:53:56.179Z,98711.84
2022-12-31T18:56:22.969Z,98700.55
2022-12-31T18:58:49.507Z,98697.91
2022-12-31T19:01:37.630Z,98697.75
2022-12-31T19:04:27.883Z,98704.55
2022-12-31T19:06:55.608Z,98706.20
2022-12-31T19:12:12.747Z,98699.09
2022-12-31T19:14:39.166Z,98704.09
2022-12-31T19:19:31.018Z,98718.16
2022-12-31T19:21:57.562Z,98719.23
2022-12-31T19:24:26.062Z,98724.13
2022-12-31T19:26:53.506Z,98725.70
2022-12-31T19:29:22.679Z,98725.54
2022-12-31T19:31:50.112Z,98723.34
2022-12-31T19:34:17.210Z,98720.55
2022-12-31T19:36:44.273Z,98721.23
2022-12-31T19:39:17.467Z,98718.39
2022-12-31T19:41:44.788Z,98716.06
2022-12-31T19:44:16.868Z,98721.93
2022-12-31T19:46:43.868Z,98734.55
2022-12-31T19:49:11.600Z,98747.88
2022-12-31T19:51:38.029Z,98747.88
2022-12-31T19:54:04.705Z,98747.81
2022-12-31T19:56:31.284Z,98743.35
2022-12-31T19:58:57.695Z,98744.87
2022-12-31T20:01:25.477Z,98749.14
2022-12-31T20:03:52.168Z,98756.79
2022-12-31T20:06:19.303Z,98764.50
2022-12-31T20:08:45.857Z,98773.65
2022-12-31T20:11:15.263Z,98769.17
2022-12-31T20:13:42.262Z,98774.76
2022-12-31T20:16:11.795Z,98776.09
2022-12-31T20:18:40.426Z,98776.30
2022-12-31T20:21:22.403Z,98776.27
2022-12-31T20:23:50.592Z,98777.70
2022-12-31T20:26:17.879Z,98784.98
2022-12-31T20:28:44.904Z,98785.21
2022-12-31T20:31:14.461Z,98788.48
2022-12-31T20:33:41.745Z,98783.25
2022-12-31T20:36:11.400Z,98785.68
2022-12-31T20:38:38.426Z,98787.67
2022-12-31T20:41:05.093Z,98787.56
2022-12-31T20:43:33.053Z,98791.09
2022-12-31T20:46:00.048Z,98797.18
2022-12-31T20:48:26.512Z,98799.80
2022-12-31T20:50:58.929Z,98791.30
2022-12-31T20:53:25.443Z,98798.35
2022-12-31T20:55:51.973Z,98794.63
2022-12-31T20:58:18.823Z,98795.83
2022-12-31T21:00:49.129Z,98801.66
2022-12-31T21:03:37.266Z,98800.15
2022-12-31T21:06:02.378Z,98803.45
2022-12-31T21:08:34.570Z,98809.87
2022-12-31T21:11:02.024Z,98812.64
2022-12-31T21:13:28.568Z,98815.41
2022-12-31T21:15:55.747Z,98816.39
2022-12-31T21:18:23.105Z,98814.75
2022-12-31T21:20:52.011Z,98816.05
2022-12-31T21:23:20.174Z,98813.41
2022-12-31T21:25:49.804Z,98812.82
2022-12-31T21:28:16.326Z,98820.47
2022-12-31T21:30:43.542Z,98826.84
2022-12-31T21:33:10.028Z,98829.65
2022-12-31T21:35:51.660Z,98829.59
2022-12-31T21:38:20.500Z,98834.83
2022-12-31T21:40:47.045Z,98837.16
2022-12-31T21:43:14.605Z,98831.75
2022-12-31T21:45:41.656Z,98825.48
2022-12-31T21:48:14.173Z,98820.19
2022-12-31T21:50:40.680Z,98817.56
2022-12-31T21:53:07.127Z,98807.13
2022-12-31T21:55:33.635Z,98803.45
2022-12-31T21:58:25.387Z,98798.79
2022-12-31T22:00:49.415Z,98797.88
2022-12-31T22:03:15.929Z,98800.09
2022-12-31T22:05:50.744Z,98801.27
2022-12-31T22:08:17.902Z,98797.29
2022-12-31T22:10:51.905Z,98788.48
2022-12-31T22:13:19.684Z,98789.64
2022-12-31T22:15:48.392Z,98790.38
2022-12-31T22:18:16.849Z,98797.17
2022-12-31T22:20:43.615Z,98796.69
2022-12-31T22:23:10.610Z,98794.08
2022-12-31T22:25:38.231Z,98792.12
2022-12-31T22:30:53.285Z,98789.08
2022-12-31T22:33:19.825Z,98791.95
2022-12-31T22:35:57.376Z,98790.52
2022-12-31T22:38:24.033Z,98791.59
2022-12-31T22:40:50.473Z,98794.05
2022-12-31T22:43:16.869Z,98791.08
2022-12-31T22:45:43.422Z,98788.17
2022-12-31T22:48:09.871Z,98790.94
2022-12-31T22:50:36.431Z,98797.23
2022-12-31T22:53:02.855Z,98789.69
2022-12-31T22:55:29.248Z,98791.85
2022-12-31T22:57:55.822Z,98793.26
2022-12-31T23:00:36.822Z,98786.23
2022-12-31T23:03:03.834Z,98775.17
2022-12-31T23:05:32.327Z,98779.48
2022-12-31T23:07:58.891Z,98775.20
2022-12-31T23:10:25.263Z,98777.26
2022-12-31T23:12:51.663Z,98779.84
2022-12-31T23:15:18.299Z,98780.80
2022-12-31T23:17:44.924Z,98780.49
2022-12-31T23:20:20.281Z,98778.81
2022-12-31T23:22:47.427Z,98784.50
2022-12-31T23:25:14.112Z,98788.65
2022-12-31T23:27:40.610Z,98794.15
2022-12-31T23:30:07.718Z,98796.03
2022-12-31T23:32:34.139Z,98795.16
2022-12-31T23:35:03.295Z,98794.91
2022-12-31T23:37:35.993Z,98789.46
2022-12-31T23:40:02.542Z,98783.59
2022-12-31T23:42:29.438Z,98789.79
2022-12-31T23:44:55.829Z,98793.98
2022-12-31T23:47:22.226Z,98797.78
2022-12-31T23:49:48.791Z,98800.52
2022-12-31T23:52:15.340Z,98800.17
2022-12-31T23:54:41.924Z,98793.30
2022-12-31T23:57:08.636Z,98790.20
2022-12-31T23:59:35.159Z,98792.09
